Terminal Aerodrome Forecast
Issued by NWS

Home | Current Version | Previous Version | Text Only | Print | Product List | Glossary On
Versions: 1 2 3 4 5 6 7 8 9 10 11 12 13 14 15 16
000
FTUS43 KGRR 060530
TAFLAN
TAF
KLAN 060530Z 0606/0706 12004KT P6SM SCT150
     FM061600 10009KT P6SM OVC025
     FM062300 21012G20KT P6SM OVC035=

USA.gov is the U.S. government's official web portal to all federal, state and local government web resources and services.